createdAt,value
2022-12-03T00:00:39.316Z,636.29
2022-12-03T00:01:34.486Z,636.90
2022-12-03T00:02:31.183Z,636.29
2022-12-03T00:03:26.364Z,639.34
2022-12-03T00:04:21.740Z,652.48
2022-12-03T00:05:17.395Z,652.48
2022-12-03T00:06:12.555Z,658.93
2022-12-03T00:07:08.447Z,658.93
2022-12-03T00:08:03.652Z,660.89
2022-12-03T00:08:59.030Z,660.23
2022-12-03T00:09:54.758Z,660.89
2022-12-03T00:10:49.953Z,665.50
2022-12-03T00:11:45.129Z,661.54
2022-12-03T00:12:41.656Z,660.23
2022-12-03T00:13:36.850Z,655.04
2022-12-03T00:14:33.015Z,657.63
2022-12-03T00:15:28.108Z,651.84
2022-12-03T00:16:23.308Z,656.98
2022-12-03T00:17:18.936Z,652.48
2022-12-03T00:18:14.110Z,651.20
2022-12-03T00:19:09.287Z,654.40
2022-12-03T00:20:04.464Z,655.04
2022-12-03T00:20:59.766Z,652.48
2022-12-03T00:21:55.223Z,646.78
2022-12-03T00:22:50.437Z,644.28
2022-12-03T00:23:45.611Z,641.19
2022-12-03T00:24:41.325Z,638.12
2022-12-03T00:25:36.534Z,631.47
2022-12-03T00:26:31.698Z,633.27
2022-12-03T00:27:27.165Z,629.68
2022-12-03T00:28:22.231Z,619.73
2022-12-03T00:29:17.256Z,622.05
2022-12-03T00:30:12.312Z,618.58
2022-12-03T00:31:07.375Z,611.77
2022-12-03T00:32:02.308Z,605.66
2022-12-03T00:32:57.399Z,602.38
2022-12-03T00:33:52.577Z,598.06
2022-12-03T00:34:47.767Z,597.52
2022-12-03T00:35:42.812Z,588.04
2022-12-03T00:36:37.815Z,585.97
2022-12-03T00:37:32.955Z,584.94
2022-12-03T00:38:28.093Z,576.84
2022-12-03T00:39:23.318Z,569.94
2022-12-03T00:40:18.378Z,566.07
2022-12-03T00:41:13.603Z,563.20
2022-12-03T00:42:08.386Z,563.20
2022-12-03T00:43:03.443Z,563.20
2022-12-03T00:43:58.453Z,559.89
2022-12-03T00:44:53.704Z,558.96
2022-12-03T00:45:48.510Z,554.77
2022-12-03T00:46:43.625Z,550.65
2022-12-03T00:47:38.660Z,546.14
2022-12-03T00:48:33.692Z,543.47
2022-12-03T00:49:28.884Z,539.95
2022-12-03T00:50:24.046Z,539.95
2022-12-03T00:51:19.180Z,540.38
2022-12-03T00:52:14.390Z,531.77
2022-12-03T00:53:09.554Z,535.18
2022-12-03T00:54:04.849Z,530.92
2022-12-03T00:55:00.018Z,527.98
2022-12-03T00:55:55.297Z,526.72
2022-12-03T00:56:50.616Z,524.65
2022-12-03T00:57:46.368Z,518.13
2022-12-03T00:58:41.517Z,521.78
2022-12-03T00:59:36.712Z,519.74
2022-12-03T01:00:31.857Z,515.33
2022-12-03T01:01:27.202Z,517.73
2022-12-03T01:02:22.319Z,518.94
2022-12-03T01:03:17.493Z,520.15
2022-12-03T01:04:12.832Z,522.19
2022-12-03T01:05:07.962Z,524.24
2022-12-03T01:06:03.150Z,527.98
2022-12-03T01:06:58.345Z,532.19
2022-12-03T01:07:53.589Z,530.92
2022-12-03T01:08:48.733Z,532.61
2022-12-03T01:09:43.923Z,533.89
2022-12-03T01:10:39.243Z,531.34
2022-12-03T01:11:34.527Z,530.50
2022-12-03T01:12:29.709Z,534.32
2022-12-03T01:13:24.868Z,536.04
2022-12-03T01:14:20.075Z,542.58
2022-12-03T01:15:15.224Z,547.03
2022-12-03T01:16:10.752Z,550.65
2022-12-03T01:17:05.820Z,550.19
2022-12-03T01:18:01.100Z,552.93
2022-12-03T01:18:56.272Z,549.29
2022-12-03T01:19:51.600Z,547.93
2022-12-03T01:20:46.761Z,544.35
2022-12-03T01:21:41.956Z,543.47
2022-12-03T01:22:37.098Z,543.02
2022-12-03T01:23:32.519Z,542.58
2022-12-03T01:24:27.555Z,539.51
2022-12-03T01:25:22.713Z,536.04
2022-12-03T01:26:17.610Z,536.90
2022-12-03T01:27:12.651Z,536.47
2022-12-03T01:28:07.791Z,531.77
2022-12-03T01:29:02.875Z,535.61
2022-12-03T01:29:57.900Z,536.47
2022-12-03T01:30:53.051Z,536.90
2022-12-03T01:31:48.130Z,535.61
2022-12-03T01:32:43.143Z,536.04
2022-12-03T01:33:38.163Z,533.04
2022-12-03T01:34:33.207Z,532.19
2022-12-03T01:35:28.515Z,529.23
2022-12-03T01:36:23.556Z,530.92
2022-12-03T01:37:18.587Z,529.65
2022-12-03T01:38:14.451Z,530.92
2022-12-03T01:39:09.445Z,533.47
2022-12-03T01:40:04.616Z,532.19
2022-12-03T01:40:59.663Z,534.32
2022-12-03T01:41:54.715Z,535.18
2022-12-03T01:42:49.735Z,536.04
2022-12-03T01:43:44.783Z,536.90
2022-12-03T01:44:39.808Z,533.47
2022-12-03T01:45:34.883Z,529.65
2022-12-03T01:46:29.920Z,528.39
2022-12-03T01:47:24.934Z,527.56
2022-12-03T01:48:19.980Z,528.81
2022-12-03T01:49:15.000Z,530.50
2022-12-03T01:50:10.046Z,530.50
2022-12-03T01:51:05.083Z,530.07
2022-12-03T01:52:00.111Z,531.34
2022-12-03T01:52:55.158Z,525.89
2022-12-03T01:53:50.296Z,527.14
2022-12-03T01:54:48.316Z,524.24
2022-12-03T01:55:48.300Z,523.01
2022-12-03T01:56:39.405Z,521.78
2022-12-03T01:57:33.384Z,516.92
2022-12-03T01:58:29.243Z,514.53
2022-12-03T01:59:24.398Z,513.74
2022-12-03T02:00:19.586Z,514.14
2022-12-03T02:01:14.776Z,512.55
2022-12-03T02:02:10.734Z,508.64
2022-12-03T02:03:05.915Z,509.81
2022-12-03T02:04:01.104Z,512.95
2022-12-03T02:04:56.526Z,517.73
2022-12-03T02:05:51.478Z,519.34
2022-12-03T02:06:46.618Z,529.23
2022-12-03T02:07:41.904Z,530.07
2022-12-03T02:08:37.090Z,527.56
2022-12-03T02:09:32.515Z,529.65
2022-12-03T02:10:27.557Z,523.42
2022-12-03T02:11:22.885Z,520.15
2022-12-03T02:12:18.044Z,516.92
2022-12-03T02:13:13.367Z,517.73
2022-12-03T02:14:08.516Z,517.73
2022-12-03T02:15:03.719Z,510.59
2022-12-03T02:15:58.882Z,507.48
2022-12-03T02:16:54.159Z,502.51
2022-12-03T02:17:49.346Z,506.71
2022-12-03T02:18:44.370Z,509.81
2022-12-03T02:19:39.647Z,520.15
2022-12-03T02:20:34.822Z,520.15
2022-12-03T02:21:30.106Z,526.31
2022-12-03T02:22:25.341Z,528.39
2022-12-03T02:23:20.518Z,521.37
2022-12-03T02:24:15.696Z,518.53
2022-12-03T02:25:10.999Z,522.19
2022-12-03T02:26:06.283Z,520.96
2022-12-03T02:27:01.443Z,516.12
2022-12-03T02:27:56.662Z,513.74
2022-12-03T02:28:51.836Z,513.34
2022-12-03T02:29:46.878Z,514.14
2022-12-03T02:30:41.881Z,514.14
2022-12-03T02:31:37.016Z,520.15
2022-12-03T02:32:32.156Z,518.94
2022-12-03T02:33:27.372Z,521.78
2022-12-03T02:34:22.385Z,518.94
2022-12-03T02:35:17.452Z,513.34
2022-12-03T02:36:12.493Z,513.34
2022-12-03T02:37:07.538Z,511.38
2022-12-03T02:38:02.620Z,503.65
2022-12-03T02:38:57.632Z,505.18
2022-12-03T02:39:52.648Z,500.62
2022-12-03T02:40:47.680Z,496.89
2022-12-03T02:41:42.706Z,495.05
2022-12-03T02:42:37.907Z,493.22
2022-12-03T02:43:32.960Z,489.60
2022-12-03T02:44:28.017Z,489.24
2022-12-03T02:45:23.042Z,490.32
2022-12-03T02:46:18.137Z,487.10
2022-12-03T02:47:13.222Z,487.10
2022-12-03T02:48:08.330Z,480.77
2022-12-03T02:49:07.016Z,476.31
2022-12-03T02:50:02.051Z,473.94
2022-12-03T02:50:57.253Z,468.94
2022-12-03T02:51:52.323Z,466.97
2022-12-03T02:52:47.390Z,463.08
2022-12-03T02:53:42.504Z,473.60
2022-12-03T02:54:37.443Z,462.76
2022-12-03T02:55:36.831Z,461.48
2022-12-03T02:56:27.711Z,461.48
2022-12-03T02:57:22.768Z,462.44
2022-12-03T02:58:17.811Z,463.72
2022-12-03T02:59:12.900Z,462.44
2022-12-03T03:00:07.965Z,463.72
2022-12-03T03:01:03.110Z,463.72
2022-12-03T03:01:58.495Z,461.80
2022-12-03T03:02:54.129Z,458.30
2022-12-03T03:03:49.317Z,459.25
2022-12-03T03:04:45.179Z,464.69
2022-12-03T03:05:40.217Z,457.05
2022-12-03T03:06:35.686Z,455.18
2022-12-03T03:07:31.462Z,451.17
2022-12-03T03:08:26.654Z,453.94
2022-12-03T03:09:21.932Z,456.42
2022-12-03T03:10:18.364Z,454.25
2022-12-03T03:11:13.522Z,454.25
2022-12-03T03:12:09.423Z,451.48
2022-12-03T03:13:04.583Z,448.44
2022-12-03T03:14:00.119Z,451.17
2022-12-03T03:14:55.825Z,446.04
2022-12-03T03:15:50.884Z,447.54
2022-12-03T03:16:46.660Z,449.95
2022-12-03T03:17:41.849Z,449.35
2022-12-03T03:18:37.163Z,448.14
2022-12-03T03:19:32.920Z,447.24
2022-12-03T03:20:28.109Z,444.26
2022-12-03T03:21:23.291Z,442.20
2022-12-03T03:22:19.685Z,444.85
2022-12-03T03:23:15.019Z,442.49
2022-12-03T03:24:10.750Z,442.20
2022-12-03T03:25:06.060Z,440.45
2022-12-03T03:26:01.279Z,441.32
2022-12-03T03:26:57.026Z,441.61
2022-12-03T03:27:52.226Z,442.78
2022-12-03T03:28:48.098Z,449.05
2022-12-03T03:29:43.246Z,447.24
2022-12-03T03:30:38.612Z,453.32
2022-12-03T03:31:34.420Z,451.17
2022-12-03T03:32:29.623Z,453.94
2022-12-03T03:33:24.772Z,454.56
2022-12-03T03:34:21.197Z,452.09
2022-12-03T03:35:16.381Z,453.32
2022-12-03T03:36:12.136Z,454.56
2022-12-03T03:37:07.431Z,453.94
2022-12-03T03:38:02.618Z,456.11
2022-12-03T03:38:58.367Z,458.62
2022-12-03T03:39:53.686Z,465.02
2022-12-03T03:40:49.562Z,458.93
2022-12-03T03:41:44.610Z,461.48
2022-12-03T03:42:39.806Z,464.05
2022-12-03T03:43:35.578Z,463.08
2022-12-03T03:44:30.761Z,467.30
2022-12-03T03:45:29.449Z,472.26
2022-12-03T03:46:21.347Z,474.61
2022-12-03T03:47:17.878Z,471.93
2022-12-03T03:48:13.160Z,472.60
2022-12-03T03:49:08.382Z,473.94
2022-12-03T03:50:04.116Z,473.27
2022-12-03T03:50:59.336Z,467.95
2022-12-03T03:51:54.486Z,475.29
2022-12-03T03:52:50.924Z,475.29
2022-12-03T03:53:46.079Z,474.61
2022-12-03T03:54:41.974Z,476.65
2022-12-03T03:55:37.244Z,482.86
2022-12-03T03:56:32.301Z,489.60
2022-12-03T03:57:28.048Z,491.04
2022-12-03T03:58:23.360Z,493.95
2022-12-03T03:59:19.248Z,501.38
2022-12-03T04:00:14.308Z,502.89
2022-12-03T04:01:09.579Z,510.98
2022-12-03T04:02:05.325Z,514.14
2022-12-03T04:03:00.462Z,516.12
2022-12-03T04:03:55.886Z,517.73
2022-12-03T04:04:51.049Z,524.24
2022-12-03T04:05:46.111Z,518.13
2022-12-03T04:06:41.422Z,522.19
2022-12-03T04:07:36.677Z,521.37
2022-12-03T04:08:31.875Z,525.48
2022-12-03T04:09:27.900Z,522.19
2022-12-03T04:10:22.937Z,522.60
2022-12-03T04:11:18.258Z,524.65
2022-12-03T04:12:13.296Z,523.42
2022-12-03T04:13:08.335Z,501.38
2022-12-03T04:14:03.361Z,501.38
2022-12-03T04:14:58.443Z,505.94
2022-12-03T04:15:53.455Z,505.18
2022-12-03T04:16:48.862Z,501.38
2022-12-03T04:17:43.876Z,501.00
2022-12-03T04:18:39.088Z,501.00
2022-12-03T04:19:34.232Z,502.89
2022-12-03T04:20:29.288Z,493.22
2022-12-03T04:21:24.340Z,492.13
2022-12-03T04:22:19.400Z,497.27
2022-12-03T04:23:14.429Z,493.95
2022-12-03T04:24:09.539Z,491.40
2022-12-03T04:25:04.571Z,494.68
2022-12-03T04:25:59.604Z,497.27
2022-12-03T04:26:54.615Z,504.03
2022-12-03T04:27:49.672Z,499.50
2022-12-03T04:28:44.698Z,505.94
2022-12-03T04:29:39.713Z,509.42
2022-12-03T04:30:34.803Z,514.53
2022-12-03T04:31:29.851Z,515.33
2022-12-03T04:32:24.999Z,516.12
2022-12-03T04:33:20.034Z,523.42
2022-12-03T04:34:15.334Z,520.96
2022-12-03T04:35:10.627Z,528.39
2022-12-03T04:36:05.675Z,525.89
2022-12-03T04:37:00.951Z,528.81
2022-12-03T04:37:56.150Z,539.95
2022-12-03T04:38:51.299Z,542.14
2022-12-03T04:39:46.461Z,549.29
2022-12-03T04:40:41.619Z,548.83
2022-12-03T04:41:37.073Z,549.74
2022-12-03T04:42:33.057Z,549.74
2022-12-03T04:43:28.249Z,552.47
2022-12-03T04:44:23.445Z,551.10
2022-12-03T04:45:18.638Z,554.77
2022-12-03T04:46:13.855Z,556.62
2022-12-03T04:47:09.020Z,563.68
2022-12-03T04:48:04.227Z,563.68
2022-12-03T04:48:59.381Z,571.90
2022-12-03T04:49:54.651Z,567.52
2022-12-03T04:50:49.838Z,570.92
2022-12-03T04:51:44.976Z,572.88
2022-12-03T04:52:40.149Z,579.35
2022-12-03T04:53:36.318Z,582.90
2022-12-03T04:54:30.710Z,589.08
2022-12-03T04:55:25.722Z,588.55
2022-12-03T04:56:21.002Z,594.33
2022-12-03T04:57:16.185Z,594.33
2022-12-03T04:58:11.512Z,591.16
2022-12-03T04:59:10.175Z,594.33
2022-12-03T05:00:03.039Z,597.52
2022-12-03T05:00:57.184Z,595.92
2022-12-03T05:01:52.449Z,596.45
2022-12-03T05:02:47.664Z,597.52
2022-12-03T05:03:42.859Z,601.29
2022-12-03T05:04:38.075Z,601.84
2022-12-03T05:05:33.219Z,598.06
2022-12-03T05:06:28.510Z,593.80
2022-12-03T05:07:24.005Z,592.74
2022-12-03T05:08:18.935Z,602.92
2022-12-03T05:09:14.096Z,600.21
2022-12-03T05:10:09.135Z,596.99
2022-12-03T05:11:04.173Z,602.92
2022-12-03T05:11:59.203Z,605.66
2022-12-03T05:12:54.230Z,607.32
2022-12-03T05:13:49.538Z,603.47
2022-12-03T05:14:44.757Z,604.02
2022-12-03T05:15:39.794Z,606.21
2022-12-03T05:16:39.097Z,606.21
2022-12-03T05:17:34.109Z,610.65
2022-12-03T05:18:29.396Z,609.54
2022-12-03T05:19:24.581Z,610.65
2022-12-03T05:20:19.760Z,615.73
2022-12-03T05:21:14.906Z,610.65
2022-12-03T05:22:10.100Z,615.16
2022-12-03T05:23:05.238Z,623.21
2022-12-03T05:24:00.426Z,622.05
2022-12-03T05:24:55.983Z,622.63
2022-12-03T05:25:50.819Z,624.96
2022-12-03T05:26:46.099Z,623.21
2022-12-03T05:27:41.397Z,632.07
2022-12-03T05:28:36.387Z,633.27
2022-12-03T05:29:31.689Z,636.90
2022-12-03T05:30:26.971Z,645.53
2022-12-03T05:31:22.283Z,647.41
2022-12-03T05:32:17.288Z,651.20
2022-12-03T05:33:12.571Z,653.12
2022-12-03T05:34:07.725Z,653.76
2022-12-03T05:35:03.006Z,654.40
2022-12-03T05:35:58.104Z,658.93
2022-12-03T05:36:53.124Z,667.50
2022-12-03T05:37:48.233Z,668.84
2022-12-03T05:38:43.641Z,664.18
2022-12-03T05:39:38.765Z,661.54
2022-12-03T05:40:33.812Z,664.18
2022-12-03T05:41:28.984Z,660.89
2022-12-03T05:42:24.143Z,659.58
2022-12-03T05:43:19.448Z,652.48
2022-12-03T05:44:20.104Z,653.76
2022-12-03T05:45:10.799Z,652.48
2022-12-03T05:46:05.229Z,647.41
2022-12-03T05:47:00.394Z,653.76
2022-12-03T05:47:55.559Z,653.76
2022-12-03T05:48:50.717Z,652.48
2022-12-03T05:49:45.904Z,656.33
2022-12-03T05:50:41.108Z,652.48
2022-12-03T05:51:36.260Z,655.04
2022-12-03T05:52:31.547Z,653.76
2022-12-03T05:53:26.625Z,650.57
2022-12-03T05:54:21.786Z,650.57
2022-12-03T05:55:16.954Z,654.40
2022-12-03T05:56:12.088Z,653.12
2022-12-03T05:57:07.278Z,653.76
2022-12-03T05:58:02.452Z,653.12
2022-12-03T05:58:57.753Z,653.12
2022-12-03T05:59:53.076Z,653.12
2022-12-03T06:00:48.137Z,651.20
2022-12-03T06:01:43.289Z,654.40
2022-12-03T06:02:38.636Z,654.40
2022-12-03T06:03:34.042Z,656.98
2022-12-03T06:04:29.109Z,649.93
2022-12-03T06:05:24.277Z,651.20
2022-12-03T06:06:19.567Z,659.58
2022-12-03T06:07:14.870Z,667.50
2022-12-03T06:08:09.966Z,670.86
2022-12-03T06:09:05.079Z,672.89
2022-12-03T06:10:00.295Z,669.51
2022-12-03T06:10:55.429Z,668.17
2022-12-03T06:11:50.878Z,672.89
2022-12-03T06:12:45.905Z,669.51
2022-12-03T06:13:41.207Z,670.86
2022-12-03T06:14:36.289Z,673.57
2022-12-03T06:15:31.436Z,668.17
2022-12-03T06:16:26.415Z,669.51
2022-12-03T06:17:21.547Z,670.86
2022-12-03T06:18:16.710Z,669.51
2022-12-03T06:19:11.785Z,672.89
2022-12-03T06:20:06.970Z,662.86
2022-12-03T06:21:02.022Z,662.86
2022-12-03T06:21:57.068Z,656.98
2022-12-03T06:22:52.131Z,652.48
2022-12-03T06:23:47.178Z,652.48
2022-12-03T06:24:42.181Z,648.04
2022-12-03T06:25:37.200Z,653.76
2022-12-03T06:26:32.277Z,653.76
2022-12-03T06:27:27.324Z,660.89
2022-12-03T06:28:22.335Z,663.52
2022-12-03T06:29:17.367Z,665.50
2022-12-03T06:30:12.414Z,671.53
2022-12-03T06:31:07.586Z,656.33
2022-12-03T06:32:03.217Z,651.84
2022-12-03T06:32:58.364Z,662.86
2022-12-03T06:33:53.568Z,670.86
2022-12-03T06:34:48.719Z,672.89
2022-12-03T06:35:44.072Z,667.50
2022-12-03T06:36:39.250Z,668.84
2022-12-03T06:37:34.555Z,668.84
2022-12-03T06:38:30.014Z,670.86
2022-12-03T06:39:25.080Z,666.17
2022-12-03T06:40:21.488Z,658.28
2022-12-03T06:41:16.863Z,646.78
2022-12-03T06:42:12.660Z,649.93
2022-12-03T06:43:07.892Z,638.73
2022-12-03T06:44:03.145Z,633.27
2022-12-03T06:44:58.971Z,630.28
2022-12-03T06:45:54.239Z,625.55
2022-12-03T06:46:50.136Z,623.21
2022-12-03T06:47:45.274Z,612.34
2022-12-03T06:48:40.659Z,582.39
2022-12-03T06:49:36.329Z,572.39
2022-12-03T06:50:31.591Z,576.84
2022-12-03T06:51:26.806Z,586.48
2022-12-03T06:52:23.290Z,589.60
2022-12-03T06:53:18.537Z,595.92
2022-12-03T06:54:14.333Z,598.59
2022-12-03T06:55:09.587Z,606.76
2022-12-03T06:56:04.838Z,605.11
2022-12-03T06:57:00.655Z,603.47
2022-12-03T06:57:55.899Z,600.21
2022-12-03T06:58:51.817Z,597.52
2022-12-03T06:59:46.939Z,604.02
2022-12-03T07:00:42.197Z,611.21
2022-12-03T07:01:38.070Z,614.03
2022-12-03T07:02:33.439Z,619.73
2022-12-03T07:03:28.705Z,624.38
2022-12-03T07:04:25.044Z,633.27
2022-12-03T07:05:20.295Z,640.57
2022-12-03T07:06:16.102Z,639.34
2022-12-03T07:07:11.345Z,626.72
2022-12-03T07:08:06.938Z,615.73
2022-12-03T07:09:02.612Z,621.47
2022-12-03T07:09:58.039Z,623.21
2022-12-03T07:10:53.794Z,627.90
2022-12-03T07:11:49.053Z,623.79
2022-12-03T07:12:44.609Z,612.34
2022-12-03T07:13:40.070Z,614.59
2022-12-03T07:14:35.362Z,622.05
2022-12-03T07:15:30.671Z,629.09
2022-12-03T07:16:27.037Z,637.51
2022-12-03T07:17:22.297Z,646.16
2022-12-03T07:18:18.037Z,648.67
2022-12-03T07:19:13.346Z,651.84
2022-12-03T07:20:08.717Z,655.69
2022-12-03T07:21:04.494Z,656.33
2022-12-03T07:21:59.885Z,651.84
2022-12-03T07:22:55.653Z,648.67
2022-12-03T07:23:51.005Z,643.66
2022-12-03T07:24:46.367Z,639.96
2022-12-03T07:25:42.162Z,639.96
2022-12-03T07:26:37.534Z,641.80
2022-12-03T07:27:32.873Z,642.42
2022-12-03T07:28:29.344Z,639.96
2022-12-03T07:29:24.673Z,632.07
2022-12-03T07:30:20.439Z,629.68
2022-12-03T07:31:15.884Z,625.55
2022-12-03T07:32:11.227Z,620.31
2022-12-03T07:33:07.063Z,623.21
2022-12-03T07:34:02.387Z,625.55
2022-12-03T07:34:58.276Z,621.47
2022-12-03T07:35:53.699Z,626.72
2022-12-03T07:36:48.902Z,627.90
2022-12-03T07:37:44.789Z,623.79
2022-12-03T07:38:40.130Z,622.63
2022-12-03T07:39:35.610Z,620.89
2022-12-03T07:40:34.778Z,607.32
2022-12-03T07:41:30.237Z,605.11
2022-12-03T07:42:25.585Z,601.84
2022-12-03T07:43:21.514Z,601.84
2022-12-03T07:44:16.904Z,597.52
2022-12-03T07:45:12.470Z,602.92
2022-12-03T07:46:08.654Z,600.75
2022-12-03T07:47:03.989Z,609.54
2022-12-03T07:47:59.791Z,614.59
2022-12-03T07:48:55.116Z,624.38
2022-12-03T07:49:50.751Z,631.47
2022-12-03T07:50:46.371Z,643.04
2022-12-03T07:51:41.721Z,643.66
2022-12-03T07:52:37.628Z,638.73
2022-12-03T07:53:32.863Z,639.34
2022-12-03T07:54:28.341Z,632.67
2022-12-03T07:55:24.002Z,637.51
2022-12-03T07:56:19.310Z,640.57
2022-12-03T07:57:14.748Z,644.28
2022-12-03T07:58:10.076Z,648.67
2022-12-03T07:59:05.570Z,647.41
2022-12-03T08:00:00.690Z,641.19
2022-12-03T08:00:55.945Z,642.42
2022-12-03T08:01:51.066Z,649.30
2022-12-03T08:02:46.225Z,655.69
2022-12-03T08:03:41.191Z,660.23
2022-12-03T08:04:36.341Z,658.28
2022-12-03T08:05:31.259Z,660.23
2022-12-03T08:06:26.354Z,654.40
2022-12-03T08:07:21.384Z,658.28
2022-12-03T08:08:16.641Z,650.57
2022-12-03T08:09:15.847Z,648.04
2022-12-03T08:10:06.577Z,644.28
2022-12-03T08:11:01.551Z,646.16
2022-12-03T08:11:56.695Z,644.91
2022-12-03T08:12:51.720Z,646.16
2022-12-03T08:13:46.843Z,641.80
2022-12-03T08:14:41.820Z,545.69
2022-12-03T08:15:39.472Z,512.55
2022-12-03T08:16:32.074Z,511.77
2022-12-03T08:17:27.170Z,513.34
2022-12-03T08:18:22.286Z,522.60
2022-12-03T08:19:17.310Z,523.83
2022-12-03T08:20:12.299Z,532.61
2022-12-03T08:21:07.419Z,547.03
2022-12-03T08:22:02.409Z,550.65
2022-12-03T08:22:57.511Z,553.85
2022-12-03T08:23:52.780Z,565.11
2022-12-03T08:24:47.788Z,564.63
2022-12-03T08:25:42.984Z,549.74
2022-12-03T08:26:38.128Z,536.04
2022-12-03T08:27:35.014Z,538.20
2022-12-03T08:28:30.030Z,543.02
2022-12-03T08:29:25.020Z,544.35
2022-12-03T08:30:20.011Z,555.69
2022-12-03T08:31:15.186Z,568.00
2022-12-03T08:32:10.295Z,579.35
2022-12-03T08:33:05.358Z,587.00
2022-12-03T08:34:00.467Z,586.48
2022-12-03T08:34:55.760Z,587.00
2022-12-03T08:35:50.683Z,576.35
2022-12-03T08:36:45.742Z,578.35
2022-12-03T08:37:40.741Z,562.73
2022-12-03T08:38:35.904Z,570.92
2022-12-03T08:39:30.884Z,580.86
2022-12-03T08:40:26.268Z,587.52
2022-12-03T08:41:21.658Z,588.55
2022-12-03T08:42:17.193Z,585.97
2022-12-03T08:43:12.460Z,587.00
2022-12-03T08:44:08.001Z,591.69
2022-12-03T08:45:03.255Z,593.27
2022-12-03T08:45:58.675Z,591.16
2022-12-03T08:46:54.119Z,589.60
2022-12-03T08:47:49.517Z,581.37
2022-12-03T08:48:48.638Z,572.88
2022-12-03T08:49:40.372Z,574.36
2022-12-03T08:50:39.738Z,570.92
2022-12-03T08:51:35.145Z,573.37
2022-12-03T08:52:30.709Z,578.35
2022-12-03T08:53:26.004Z,584.94
2022-12-03T08:54:21.352Z,594.33
2022-12-03T08:55:16.814Z,598.59
2022-12-03T08:56:12.216Z,566.07
2022-12-03T08:57:07.599Z,552.47
2022-12-03T08:58:02.990Z,559.42
2022-12-03T08:58:58.385Z,568.00
2022-12-03T08:59:53.781Z,588.55
2022-12-03T09:00:49.218Z,600.21
2022-12-03T09:01:44.745Z,602.92
2022-12-03T09:02:40.173Z,605.66
2022-12-03T09:03:35.892Z,601.84
2022-12-03T09:04:31.336Z,608.98
2022-12-03T09:05:26.944Z,623.21
2022-12-03T09:06:22.258Z,626.13
2022-12-03T09:07:17.624Z,620.31
2022-12-03T09:08:13.117Z,615.16
2022-12-03T09:09:08.585Z,623.79
2022-12-03T09:10:04.384Z,626.72
2022-12-03T09:10:59.785Z,629.68
2022-12-03T09:11:55.344Z,629.68
2022-12-03T09:12:50.691Z,631.47
2022-12-03T09:13:46.149Z,632.67
2022-12-03T09:14:41.591Z,643.66
2022-12-03T09:15:37.041Z,636.29
2022-12-03T09:16:32.529Z,630.87
2022-12-03T09:17:27.899Z,635.08
2022-12-03T09:18:23.399Z,640.57
2022-12-03T09:19:18.679Z,648.67
2022-12-03T09:20:14.040Z,646.78
2022-12-03T09:21:09.572Z,646.78
2022-12-03T09:22:04.828Z,646.16
2022-12-03T09:23:04.513Z,642.42
2022-12-03T09:23:59.744Z,646.78
2022-12-03T09:24:55.392Z,652.48
2022-12-03T09:25:50.716Z,643.66
2022-12-03T09:26:45.980Z,646.16
2022-12-03T09:27:41.409Z,643.66
2022-12-03T09:28:36.830Z,644.91
2022-12-03T09:29:32.437Z,643.66
2022-12-03T09:30:27.575Z,644.28
2022-12-03T09:31:22.922Z,647.41
2022-12-03T09:32:19.078Z,654.40
2022-12-03T09:33:13.856Z,647.41
2022-12-03T09:34:09.144Z,649.30
2022-12-03T09:35:04.583Z,646.16
2022-12-03T09:36:00.036Z,652.48
2022-12-03T09:36:55.014Z,647.41
2022-12-03T09:37:50.188Z,651.20
2022-12-03T09:38:47.820Z,651.20
2022-12-03T09:39:40.362Z,649.30
2022-12-03T09:40:35.351Z,649.30
2022-12-03T09:41:30.380Z,655.69
2022-12-03T09:42:25.447Z,653.76
2022-12-03T09:43:20.466Z,651.84
2022-12-03T09:44:17.874Z,650.57
2022-12-03T09:45:10.599Z,642.42
2022-12-03T09:46:07.731Z,644.28
2022-12-03T09:47:02.737Z,632.67
2022-12-03T09:47:57.798Z,626.72
2022-12-03T09:48:52.826Z,623.79
2022-12-03T09:49:48.695Z,610.65
2022-12-03T09:50:44.265Z,611.77
2022-12-03T09:51:39.578Z,612.34
2022-12-03T09:52:35.051Z,620.89
2022-12-03T09:53:30.826Z,626.13
2022-12-03T09:54:26.164Z,632.07
2022-12-03T09:55:21.603Z,637.51
2022-12-03T09:56:17.195Z,636.29
2022-12-03T09:57:12.653Z,632.67
2022-12-03T09:58:08.180Z,623.21
2022-12-03T09:59:03.820Z,634.47
2022-12-03T09:59:59.117Z,639.96
2022-12-03T10:00:54.613Z,641.80
2022-12-03T10:01:50.166Z,643.04
2022-12-03T10:02:45.039Z,642.42
2022-12-03T10:03:40.063Z,648.67
2022-12-03T10:04:35.246Z,656.33
2022-12-03T10:05:30.124Z,665.50
2022-12-03T10:06:25.139Z,667.50
2022-12-03T10:07:20.183Z,661.54
2022-12-03T10:08:15.382Z,630.28
2022-12-03T10:09:12.775Z,597.52
2022-12-03T10:10:08.235Z,602.38
2022-12-03T10:11:03.699Z,608.42
2022-12-03T10:11:59.121Z,605.11
2022-12-03T10:12:54.580Z,610.09
2022-12-03T10:13:50.044Z,553.39
2022-12-03T10:14:45.659Z,461.80
2022-12-03T10:15:41.061Z,447.24
2022-12-03T10:16:36.577Z,449.65
2022-12-03T10:17:32.131Z,455.80
2022-12-03T10:18:30.550Z,471.59
2022-12-03T10:19:23.171Z,474.28
2022-12-03T10:20:18.709Z,493.95
2022-12-03T10:21:14.012Z,497.64
2022-12-03T10:22:09.497Z,499.50
2022-12-03T10:23:05.050Z,508.64
2022-12-03T10:24:00.541Z,523.83
2022-12-03T10:24:55.915Z,539.95
2022-12-03T10:25:51.473Z,539.51
2022-12-03T10:26:46.894Z,547.03
2022-12-03T10:27:42.400Z,562.73
2022-12-03T10:28:37.821Z,567.03
2022-12-03T10:29:34.507Z,579.35
2022-12-03T10:30:29.004Z,579.85
2022-12-03T10:31:28.118Z,585.46
2022-12-03T10:32:23.405Z,590.64
2022-12-03T10:33:19.416Z,593.27
2022-12-03T10:34:14.350Z,595.92
2022-12-03T10:35:09.772Z,603.47
2022-12-03T10:36:05.242Z,588.04
2022-12-03T10:37:00.723Z,585.46
2022-12-03T10:37:56.271Z,585.97
2022-12-03T10:38:51.750Z,587.00
2022-12-03T10:39:51.073Z,575.85
2022-12-03T10:40:43.178Z,580.86
2022-12-03T10:41:37.242Z,590.12
2022-12-03T10:42:32.380Z,593.80
2022-12-03T10:43:27.533Z,585.97
2022-12-03T10:44:22.561Z,587.52
2022-12-03T10:45:17.555Z,579.85
2022-12-03T10:46:12.690Z,575.35
2022-12-03T10:47:07.790Z,567.52
2022-12-03T10:48:02.855Z,574.86
2022-12-03T10:48:57.844Z,574.86
2022-12-03T10:49:52.904Z,581.88
2022-12-03T10:50:47.921Z,577.84
2022-12-03T10:51:42.973Z,579.85
2022-12-03T10:52:38.002Z,579.35
2022-12-03T10:53:33.149Z,582.90
2022-12-03T10:54:32.607Z,570.92
2022-12-03T10:55:28.132Z,574.36
2022-12-03T10:56:23.571Z,569.94
2022-12-03T10:57:18.931Z,570.43
2022-12-03T10:58:14.390Z,570.92
2022-12-03T10:59:10.091Z,573.87
2022-12-03T11:00:05.388Z,568.48
2022-12-03T11:01:00.855Z,557.09
2022-12-03T11:01:56.278Z,557.55
2022-12-03T11:02:56.815Z,553.85
2022-12-03T11:03:48.108Z,555.23
2022-12-03T11:04:42.422Z,549.74
2022-12-03T11:05:37.797Z,546.59
2022-12-03T11:06:33.289Z,549.29
2022-12-03T11:07:29.372Z,554.31
2022-12-03T11:08:24.554Z,555.69
2022-12-03T11:09:19.994Z,557.09
2022-12-03T11:10:15.460Z,560.36
2022-12-03T11:11:10.907Z,563.68
2022-12-03T11:12:06.345Z,556.62
2022-12-03T11:13:01.748Z,560.84
2022-12-03T11:13:57.198Z,558.02
2022-12-03T11:14:53.867Z,564.16
2022-12-03T11:15:49.236Z,563.20
2022-12-03T11:16:44.552Z,567.52
2022-12-03T11:17:40.035Z,568.48
2022-12-03T11:18:35.442Z,577.84
2022-12-03T11:19:30.860Z,580.86
2022-12-03T11:20:26.475Z,581.88
2022-12-03T11:21:21.982Z,579.35
2022-12-03T11:22:17.428Z,583.41
2022-12-03T11:23:12.925Z,580.86
2022-12-03T11:24:07.910Z,575.85
2022-12-03T11:25:02.980Z,578.35
2022-12-03T11:25:58.062Z,578.85
2022-12-03T11:26:53.445Z,574.86
2022-12-03T11:27:48.182Z,577.84
2022-12-03T11:28:43.286Z,566.55
2022-12-03T11:29:38.289Z,559.89
2022-12-03T11:30:35.639Z,554.31